sensor_id;sensor_type;location;lat;lon;timestamp;P1;P2;P0
74089;PMS5003;62448;-26.094;27.994;2022-07-23T08:25:46;31;28;
74089;PMS5003;62448;-26.094;27.994;2022-07-23T08:32:22;26;23;
74089;PMS5003;62448;-26.094;27.994;2022-07-23T08:34:47;22;19;
74089;PMS5003;62448;-26.094;27.994;2022-07-23T08:37:17;18;18;
74089;PMS5003;62448;-26.094;27.994;2022-07-23T08:39:43;20;17;
74089;PMS5003;62448;-26.094;27.994;2022-07-23T08:42:03;22;21;
74089;PMS5003;62448;-26.094;27.994;2022-07-23T08:44:29;21;21;
74089;PMS5003;62448;-26.094;27.994;2022-07-23T08:46:54;24;22;
74089;PMS5003;62448;-26.094;27.994;2022-07-23T08:49:19;21;21;
74089;PMS5003;62448;-26.094;27.994;2022-07-23T08:51:44;22;20;
74089;PMS5003;62448;-26.094;27.994;2022-07-23T08:54:09;19;17;
74089;PMS5003;62448;-26.094;27.994;2022-07-23T08:56:35;22;19;
74089;PMS5003;62448;-26.094;27.994;2022-07-23T08:59:00;21;17;
74089;PMS5003;62448;-26.094;27.994;2022-07-23T09:01:25;22;19;
74089;PMS5003;62448;-26.094;27.994;2022-07-23T09:03:51;18;18;
74089;PMS5003;62448;-26.094;27.994;2022-07-23T09:06:16;16;16;
74089;PMS5003;62448;-26.094;27.994;2022-07-23T09:08:43;18;17;
74089;PMS5003;62448;-26.094;27.994;2022-07-23T09:11:08;18;18;
74089;PMS5003;62448;-26.094;27.994;2022-07-23T09:13:34;22;19;
74089;PMS5003;62448;-26.094;27.994;2022-07-23T09:15:59;16;16;
74089;PMS5003;62448;-26.094;27.994;2022-07-23T09:18:32;15;15;
74089;PMS5003;62448;-26.094;27.994;2022-07-23T09:20:49;15;14;
74089;PMS5003;62448;-26.094;27.994;2022-07-23T09:23:14;15;13;
74089;PMS5003;62448;-26.094;27.994;2022-07-23T09:25:39;16;14;
74089;PMS5003;62448;-26.094;27.994;2022-07-23T09:28:05;13;13;
74089;PMS5003;62448;-26.094;27.994;2022-07-23T09:30:31;15;13;
74089;PMS5003;62448;-26.094;27.994;2022-07-23T09:33:11;14;13;
74089;PMS5003;62448;-26.094;27.994;2022-07-23T09:35:20;14;14;
74089;PMS5003;62448;-26.094;27.994;2022-07-23T09:37:49;15;13;
74089;PMS5003;62448;-26.094;27.994;2022-07-23T09:40:11;15;14;
74089;PMS5003;62448;-26.094;27.994;2022-07-23T09:42:36;16;15;
74089;PMS5003;62448;-26.094;27.994;2022-07-23T09:45:01;14;14;
74089;PMS5003;62448;-26.094;27.994;2022-07-23T09:47:27;13;13;
74089;PMS5003;62448;-26.094;27.994;2022-07-23T09:50:00;19;16;
74089;PMS5003;62448;-26.094;27.994;2022-07-23T09:52:17;15;13;
74089;PMS5003;62448;-26.094;27.994;2022-07-23T09:54:43;13;13;
74089;PMS5003;62448;-26.094;27.994;2022-07-23T09:57:10;11;11;
74089;PMS5003;62448;-26.094;27.994;2022-07-23T09:59:34;16;14;
74089;PMS5003;62448;-26.094;27.994;2022-07-23T10:01:59;12;12;
74089;PMS5003;62448;-26.094;27.994;2022-07-23T10:04:25;12;12;
74089;PMS5003;62448;-26.094;27.994;2022-07-23T10:06:52;15;15;
74089;PMS5003;62448;-26.094;27.994;2022-07-23T10:09:15;11;11;
74089;PMS5003;62448;-26.094;27.994;2022-07-23T10:11:40;16;13;
74089;PMS5003;62448;-26.094;27.994;2022-07-23T10:14:05;16;13;
74089;PMS5003;62448;-26.094;27.994;2022-07-23T10:16:31;14;12;
74089;PMS5003;62448;-26.094;27.994;2022-07-23T10:18:57;11;10;
74089;PMS5003;62448;-26.094;27.994;2022-07-23T10:21:24;11;11;
74089;PMS5003;62448;-26.094;27.994;2022-07-23T10:23:51;14;14;
74089;PMS5003;62448;-26.094;27.994;2022-07-23T10:26:15;15;13;
74089;PMS5003;62448;-26.094;27.994;2022-07-23T10:28:45;16;12;
74089;PMS5003;62448;-26.094;27.994;2022-07-23T10:31:05;10;10;
74089;PMS5003;62448;-26.094;27.994;2022-07-23T10:33:32;10;9;
74089;PMS5003;62448;-26.094;27.994;2022-07-23T10:35:55;10;10;
74089;PMS5003;62448;-26.094;27.994;2022-07-23T10:38:21;13;12;
74089;PMS5003;62448;-26.094;27.994;2022-07-23T10:41:01;12;12;
74089;PMS5003;62448;-26.094;27.994;2022-07-23T10:43:13;12;12;
74089;PMS5003;62448;-26.094;27.994;2022-07-23T10:45:36;14;14;
74089;PMS5003;62448;-26.094;27.994;2022-07-23T10:48:14;10;10;
74089;PMS5003;62448;-26.094;27.994;2022-07-23T10:50:27;10;10;
74089;PMS5003;62448;-26.094;27.994;2022-07-23T10:53:23;11;11;
74089;PMS5003;62448;-26.094;27.994;2022-07-23T10:55:50;12;10;
74089;PMS5003;62448;-26.094;27.994;2022-07-23T10:57:47;11;10;
74089;PMS5003;62448;-26.094;27.994;2022-07-23T11:00:21;10;10;
74089;PMS5003;62448;-26.094;27.994;2022-07-23T11:02:33;10;10;
74089;PMS5003;62448;-26.094;27.994;2022-07-23T11:05:00;11;11;
74089;PMS5003;62448;-26.094;27.994;2022-07-23T11:07:23;11;10;
74089;PMS5003;62448;-26.094;27.994;2022-07-23T11:09:49;12;12;
74089;PMS5003;62448;-26.094;27.994;2022-07-23T11:12:46;9;9;
74089;PMS5003;62448;-26.094;27.994;2022-07-23T11:15:21;12;12;
74089;PMS5003;62448;-26.094;27.994;2022-07-23T11:17:06;15;10;
74089;PMS5003;62448;-26.094;27.994;2022-07-23T11:19:30;13;13;
74089;PMS5003;62448;-26.094;27.994;2022-07-23T11:21:55;10;10;
74089;PMS5003;62448;-26.094;27.994;2022-07-23T11:24:22;11;11;
74089;PMS5003;62448;-26.094;27.994;2022-07-23T11:26:47;13;13;
74089;PMS5003;62448;-26.094;27.994;2022-07-23T11:29:44;9;9;
74089;PMS5003;62448;-26.094;27.994;2022-07-23T11:31:36;8;8;
74089;PMS5003;62448;-26.094;27.994;2022-07-23T11:34:24;9;8;
74089;PMS5003;62448;-26.094;27.994;2022-07-23T11:36:27;8;8;
74089;PMS5003;62448;-26.094;27.994;2022-07-23T11:38:53;8;8;
74089;PMS5003;62448;-26.094;27.994;2022-07-23T11:41:18;10;9;
74089;PMS5003;62448;-26.094;27.994;2022-07-23T11:43:44;8;8;
74089;PMS5003;62448;-26.094;27.994;2022-07-23T11:46:09;9;9;
74089;PMS5003;62448;-26.094;27.994;2022-07-23T11:48:34;12;10;
74089;PMS5003;62448;-26.094;27.994;2022-07-23T11:50:59;7;7;
74089;PMS5003;62448;-26.094;27.994;2022-07-23T11:53:25;8;8;
74089;PMS5003;62448;-26.094;27.994;2022-07-23T11:55:51;10;9;
74089;PMS5003;62448;-26.094;27.994;2022-07-23T11:58:16;8;8;
74089;PMS5003;62448;-26.094;27.994;2022-07-23T12:00:41;8;8;
74089;PMS5003;62448;-26.094;27.994;2022-07-23T12:03:06;7;7;
74089;PMS5003;62448;-26.094;27.994;2022-07-23T12:05:32;11;10;
74089;PMS5003;62448;-26.094;27.994;2022-07-23T12:07:57;9;9;
74089;PMS5003;62448;-26.094;27.994;2022-07-23T12:10:22;11;10;
74089;PMS5003;62448;-26.094;27.994;2022-07-23T12:12:48;7;7;
74089;PMS5003;62448;-26.094;27.994;2022-07-23T12:15:13;11;11;
74089;PMS5003;62448;-26.094;27.994;2022-07-23T12:17:38;7;7;
74089;PMS5003;62448;-26.094;27.994;2022-07-23T12:20:03;10;10;
74089;PMS5003;62448;-26.094;27.994;2022-07-23T12:22:34;8;8;
74089;PMS5003;62448;-26.094;27.994;2022-07-23T12:24:54;9;7;
74089;PMS5003;62448;-26.094;27.994;2022-07-23T12:27:20;13;12;
74089;PMS5003;62448;-26.094;27.994;2022-07-23T12:29:44;9;9;
74089;PMS5003;62448;-26.094;27.994;2022-07-23T12:32:17;11;10;
74089;PMS5003;62448;-26.094;27.994;2022-07-23T12:34:35;10;10;
74089;PMS5003;62448;-26.094;27.994;2022-07-23T12:37:00;15;12;
74089;PMS5003;62448;-26.094;27.994;2022-07-23T12:39:33;11;11;
74089;PMS5003;62448;-26.094;27.994;2022-07-23T12:41:51;9;9;
74089;PMS5003;62448;-26.094;27.994;2022-07-23T12:44:16;11;8;
74089;PMS5003;62448;-26.094;27.994;2022-07-23T12:46:41;10;10;
74089;PMS5003;62448;-26.094;27.994;2022-07-23T12:49:07;9;9;
74089;PMS5003;62448;-26.094;27.994;2022-07-23T12:51:32;12;11;
74089;PMS5003;62448;-26.094;27.994;2022-07-23T12:53:59;10;9;
74089;PMS5003;62448;-26.094;27.994;2022-07-23T12:56:27;8;8;
74089;PMS5003;62448;-26.094;27.994;2022-07-23T12:58:49;11;11;
74089;PMS5003;62448;-26.094;27.994;2022-07-23T13:01:24;12;9;
74089;PMS5003;62448;-26.094;27.994;2022-07-23T13:03:39;8;8;
74089;PMS5003;62448;-26.094;27.994;2022-07-23T13:06:04;10;10;
74089;PMS5003;62448;-26.094;27.994;2022-07-23T13:08:30;7;6;
74089;PMS5003;62448;-26.094;27.994;2022-07-23T13:10:54;9;9;
74089;PMS5003;62448;-26.094;27.994;2022-07-23T13:13:21;8;8;
74089;PMS5003;62448;-26.094;27.994;2022-07-23T13:15:44;9;9;
74089;PMS5003;62448;-26.094;27.994;2022-07-23T13:18:09;9;9;
74089;PMS5003;62448;-26.094;27.994;2022-07-23T13:20:35;9;8;
74089;PMS5003;62448;-26.094;27.994;2022-07-23T13:23:00;7;7;
74089;PMS5003;62448;-26.094;27.994;2022-07-23T13:25:25;9;9;
74089;PMS5003;62448;-26.094;27.994;2022-07-23T13:27:50;10;9;
74089;PMS5003;62448;-26.094;27.994;2022-07-23T13:30:16;10;10;
74089;PMS5003;62448;-26.094;27.994;2022-07-23T13:32:41;8;8;
74089;PMS5003;62448;-26.094;27.994;2022-07-23T13:35:07;11;11;
74089;PMS5003;62448;-26.094;27.994;2022-07-23T13:37:32;9;9;
74089;PMS5003;62448;-26.094;27.994;2022-07-23T13:39:57;10;9;
74089;PMS5003;62448;-26.094;27.994;2022-07-23T13:42:23;9;9;
74089;PMS5003;62448;-26.094;27.994;2022-07-23T13:44:48;10;9;
74089;PMS5003;62448;-26.094;27.994;2022-07-23T13:47:13;11;9;
74089;PMS5003;62448;-26.094;27.994;2022-07-23T13:49:38;10;10;
74089;PMS5003;62448;-26.094;27.994;2022-07-23T13:52:04;9;9;
74089;PMS5003;62448;-26.094;27.994;2022-07-23T13:54:29;11;9;
74089;PMS5003;62448;-26.094;27.994;2022-07-23T13:56:54;9;9;
74089;PMS5003;62448;-26.094;27.994;2022-07-23T13:59:19;9;9;
74089;PMS5003;62448;-26.094;27.994;2022-07-23T14:01:44;11;11;
74089;PMS5003;62448;-26.094;27.994;2022-07-23T14:04:09;9;9;
74089;PMS5003;62448;-26.094;27.994;2022-07-23T14:06:35;9;9;
74089;PMS5003;62448;-26.094;27.994;2022-07-23T14:09:00;9;9;
74089;PMS5003;62448;-26.094;27.994;2022-07-23T14:11:25;9;9;
74089;PMS5003;62448;-26.094;27.994;2022-07-23T14:13:50;9;9;
74089;PMS5003;62448;-26.094;27.994;2022-07-23T14:16:15;10;9;
74089;PMS5003;62448;-26.094;27.994;2022-07-23T14:18:41;9;9;
74089;PMS5003;62448;-26.094;27.994;2022-07-23T14:21:06;11;11;
74089;PMS5003;62448;-26.094;27.994;2022-07-23T14:23:31;8;8;
74089;PMS5003;62448;-26.094;27.994;2022-07-23T14:25:56;9;9;
74089;PMS5003;62448;-26.094;27.994;2022-07-23T14:28:22;12;12;
74089;PMS5003;62448;-26.094;27.994;2022-07-23T14:30:48;9;9;
74089;PMS5003;62448;-26.094;27.994;2022-07-23T14:33:13;11;11;
74089;PMS5003;62448;-26.094;27.994;2022-07-23T14:35:38;12;12;
74089;PMS5003;62448;-26.094;27.994;2022-07-23T14:38:03;9;9;
74089;PMS5003;62448;-26.094;27.994;2022-07-23T14:40:28;9;9;
74089;PMS5003;62448;-26.094;27.994;2022-07-23T14:42:53;8;8;
74089;PMS5003;62448;-26.094;27.994;2022-07-23T14:45:19;11;10;
74089;PMS5003;62448;-26.094;27.994;2022-07-23T14:47:45;10;8;
74089;PMS5003;62448;-26.094;27.994;2022-07-23T14:50:10;7;7;
74089;PMS5003;62448;-26.094;27.994;2022-07-23T14:52:35;10;9;
74089;PMS5003;62448;-26.094;27.994;2022-07-23T14:55:00;10;10;
74089;PMS5003;62448;-26.094;27.994;2022-07-23T14:57:26;13;10;
74089;PMS5003;62448;-26.094;27.994;2022-07-23T14:59:51;12;11;
74089;PMS5003;62448;-26.094;27.994;2022-07-23T15:02:16;11;11;
74089;PMS5003;62448;-26.094;27.994;2022-07-23T15:04:41;10;10;
74089;PMS5003;62448;-26.094;27.994;2022-07-23T15:07:07;8;8;
74089;PMS5003;62448;-26.094;27.994;2022-07-23T15:09:32;10;9;
74089;PMS5003;62448;-26.094;27.994;2022-07-23T15:11:57;11;9;
74089;PMS5003;62448;-26.094;27.994;2022-07-23T15:14:22;11;10;
74089;PMS5003;62448;-26.094;27.994;2022-07-23T15:16:48;9;9;
74089;PMS5003;62448;-26.094;27.994;2022-07-23T15:19:13;12;11;
74089;PMS5003;62448;-26.094;27.994;2022-07-23T15:21:38;10;10;
74089;PMS5003;62448;-26.094;27.994;2022-07-23T15:24:03;12;11;
74089;PMS5003;62448;-26.094;27.994;2022-07-23T15:26:29;8;8;
74089;PMS5003;62448;-26.094;27.994;2022-07-23T15:28:54;8;8;
74089;PMS5003;62448;-26.094;27.994;2022-07-23T15:31:19;11;10;
74089;PMS5003;62448;-26.094;27.994;2022-07-23T15:33:44;7;7;
74089;PMS5003;62448;-26.094;27.994;2022-07-23T15:36:10;10;10;
74089;PMS5003;62448;-26.094;27.994;2022-07-23T15:38:35;8;8;
74089;PMS5003;62448;-26.094;27.994;2022-07-23T15:41:00;11;11;
74089;PMS5003;62448;-26.094;27.994;2022-07-23T15:43:25;10;10;
74089;PMS5003;62448;-26.094;27.994;2022-07-23T15:45:51;12;11;
74089;PMS5003;62448;-26.094;27.994;2022-07-23T15:48:16;9;9;
74089;PMS5003;62448;-26.094;27.994;2022-07-23T15:50:41;11;10;
74089;PMS5003;62448;-26.094;27.994;2022-07-23T15:53:07;12;12;
74089;PMS5003;62448;-26.094;27.994;2022-07-23T15:55:32;12;10;
74089;PMS5003;62448;-26.094;27.994;2022-07-23T15:57:57;9;9;
74089;PMS5003;62448;-26.094;27.994;2022-07-23T16:00:22;11;11;
74089;PMS5003;62448;-26.094;27.994;2022-07-23T16:02:48;10;9;
74089;PMS5003;62448;-26.094;27.994;2022-07-23T16:05:13;11;11;
74089;PMS5003;62448;-26.094;27.994;2022-07-23T16:07:38;11;9;
74089;PMS5003;62448;-26.094;27.994;2022-07-23T16:10:04;11;8;
74089;PMS5003;62448;-26.094;27.994;2022-07-23T16:12:46;12;11;
74089;PMS5003;62448;-26.094;27.994;2022-07-23T16:15:11;13;12;
74089;PMS5003;62448;-26.094;27.994;2022-07-23T16:17:37;11;11;
74089;PMS5003;62448;-26.094;27.994;2022-07-23T16:20:03;10;10;
74089;PMS5003;62448;-26.094;27.994;2022-07-23T16:22:27;13;13;
74089;PMS5003;62448;-26.094;27.994;2022-07-23T16:24:52;13;10;
74089;PMS5003;62448;-26.094;27.994;2022-07-23T16:27:17;14;11;
74089;PMS5003;62448;-26.094;27.994;2022-07-23T16:29:42;13;13;
74089;PMS5003;62448;-26.094;27.994;2022-07-23T16:32:08;15;13;
74089;PMS5003;62448;-26.094;27.994;2022-07-23T16:34:33;22;17;
74089;PMS5003;62448;-26.094;27.994;2022-07-23T16:36:59;15;12;
74089;PMS5003;62448;-26.094;27.994;2022-07-23T16:39:24;14;14;
74089;PMS5003;62448;-26.094;27.994;2022-07-23T16:41:49;11;11;
74089;PMS5003;62448;-26.094;27.994;2022-07-23T16:44:14;13;13;
74089;PMS5003;62448;-26.094;27.994;2022-07-23T16:46:39;16;15;
74089;PMS5003;62448;-26.094;27.994;2022-07-23T16:49:05;13;13;
74089;PMS5003;62448;-26.094;27.994;2022-07-23T16:51:30;15;15;
74089;PMS5003;62448;-26.094;27.994;2022-07-23T16:53:55;14;14;
74089;PMS5003;62448;-26.094;27.994;2022-07-23T16:56:21;17;17;
74089;PMS5003;62448;-26.094;27.994;2022-07-23T16:58:45;15;13;
74089;PMS5003;62448;-26.094;27.994;2022-07-23T17:01:11;17;16;
74089;PMS5003;62448;-26.094;27.994;2022-07-23T17:03:36;17;17;
74089;PMS5003;62448;-26.094;27.994;2022-07-23T17:06:01;16;15;
74089;PMS5003;62448;-26.094;27.994;2022-07-23T17:08:27;23;21;
74089;PMS5003;62448;-26.094;27.994;2022-07-23T17:10:52;18;18;
74089;PMS5003;62448;-26.094;27.994;2022-07-23T17:13:18;20;19;
74089;PMS5003;62448;-26.094;27.994;2022-07-23T17:15:43;19;19;
74089;PMS5003;62448;-26.094;27.994;2022-07-23T17:18:09;18;18;
74089;PMS5003;62448;-26.094;27.994;2022-07-23T17:20:34;19;19;
74089;PMS5003;62448;-26.094;27.994;2022-07-23T17:23:00;19;18;
74089;PMS5003;62448;-26.094;27.994;2022-07-23T17:25:25;22;22;
74089;PMS5003;62448;-26.094;27.994;2022-07-23T17:27:51;20;20;
74089;PMS5003;62448;-26.094;27.994;2022-07-23T17:30:17;19;19;
74089;PMS5003;62448;-26.094;27.994;2022-07-23T17:32:42;19;18;
74089;PMS5003;62448;-26.094;27.994;2022-07-23T17:35:08;21;20;
74089;PMS5003;62448;-26.094;27.994;2022-07-23T17:37:34;20;19;
74089;PMS5003;62448;-26.094;27.994;2022-07-23T17:39:59;19;19;
74089;PMS5003;62448;-26.094;27.994;2022-07-23T17:42:25;19;19;
74089;PMS5003;62448;-26.094;27.994;2022-07-23T17:44:51;17;17;
74089;PMS5003;62448;-26.094;27.994;2022-07-23T17:47:16;24;22;
74089;PMS5003;62448;-26.094;27.994;2022-07-23T17:49:42;21;20;
74089;PMS5003;62448;-26.094;27.994;2022-07-23T17:52:07;21;20;
74089;PMS5003;62448;-26.094;27.994;2022-07-23T17:54:33;21;21;
74089;PMS5003;62448;-26.094;27.994;2022-07-23T17:56:58;21;21;
74089;PMS5003;62448;-26.094;27.994;2022-07-23T17:59:24;26;22;
74089;PMS5003;62448;-26.094;27.994;2022-07-23T18:01:49;20;20;
74089;PMS5003;62448;-26.094;27.994;2022-07-23T18:04:15;21;20;
74089;PMS5003;62448;-26.094;27.994;2022-07-23T18:06:40;20;20;
74089;PMS5003;62448;-26.094;27.994;2022-07-23T18:09:06;22;19;
74089;PMS5003;62448;-26.094;27.994;2022-07-23T18:11:31;21;19;
74089;PMS5003;62448;-26.094;27.994;2022-07-23T18:13:57;21;21;
74089;PMS5003;62448;-26.094;27.994;2022-07-23T18:16:22;20;20;
74089;PMS5003;62448;-26.094;27.994;2022-07-23T18:18:47;23;22;
74089;PMS5003;62448;-26.094;27.994;2022-07-23T18:21:13;23;22;
74089;PMS5003;62448;-26.094;27.994;2022-07-23T18:23:38;21;21;
74089;PMS5003;62448;-26.094;27.994;2022-07-23T18:26:03;24;22;
74089;PMS5003;62448;-26.094;27.994;2022-07-23T18:28:29;29;26;
74089;PMS5003;62448;-26.094;27.994;2022-07-23T18:30:54;29;26;
74089;PMS5003;62448;-26.094;27.994;2022-07-23T18:33:20;26;23;
74089;PMS5003;62448;-26.094;27.994;2022-07-23T18:35:46;26;23;
74089;PMS5003;62448;-26.094;27.994;2022-07-23T18:38:11;26;25;
74089;PMS5003;62448;-26.094;27.994;2022-07-23T18:40:37;23;22;
74089;PMS5003;62448;-26.094;27.994;2022-07-23T18:43:02;24;22;
74089;PMS5003;62448;-26.094;27.994;2022-07-23T18:45:28;26;25;
74089;PMS5003;62448;-26.094;27.994;2022-07-23T18:47:54;30;27;
74089;PMS5003;62448;-26.094;27.994;2022-07-23T18:50:20;23;23;
74089;PMS5003;62448;-26.094;27.994;2022-07-23T18:52:45;31;27;
74089;PMS5003;62448;-26.094;27.994;2022-07-23T18:55:11;28;25;
74089;PMS5003;62448;-26.094;27.994;2022-07-23T18:57:36;28;24;
74089;PMS5003;62448;-26.094;27.994;2022-07-23T19:00:02;25;24;
74089;PMS5003;62448;-26.094;27.994;2022-07-23T19:02:26;32;28;
74089;PMS5003;62448;-26.094;27.994;2022-07-23T19:04:51;27;27;
74089;PMS5003;62448;-26.094;27.994;2022-07-23T19:07:17;29;28;
74089;PMS5003;62448;-26.094;27.994;2022-07-23T19:09:43;27;27;
74089;PMS5003;62448;-26.094;27.994;2022-07-23T19:12:08;26;24;
74089;PMS5003;62448;-26.094;27.994;2022-07-23T19:14:34;27;27;
74089;PMS5003;62448;-26.094;27.994;2022-07-23T19:16:59;32;30;
74089;PMS5003;62448;-26.094;27.994;2022-07-23T19:19:25;31;27;
74089;PMS5003;62448;-26.094;27.994;2022-07-23T19:21:50;27;25;
74089;PMS5003;62448;-26.094;27.994;2022-07-23T19:24:15;27;26;
74089;PMS5003;62448;-26.094;27.994;2022-07-23T19:26:40;29;28;
74089;PMS5003;62448;-26.094;27.994;2022-07-23T19:29:06;25;24;
74089;PMS5003;62448;-26.094;27.994;2022-07-23T19:31:31;32;31;
74089;PMS5003;62448;-26.094;27.994;2022-07-23T19:33:57;30;27;
74089;PMS5003;62448;-26.094;27.994;2022-07-23T19:36:22;29;26;
74089;PMS5003;62448;-26.094;27.994;2022-07-23T19:38:48;29;29;
74089;PMS5003;62448;-26.094;27.994;2022-07-23T19:41:13;26;26;
74089;PMS5003;62448;-26.094;27.994;2022-07-23T19:43:39;26;25;
74089;PMS5003;62448;-26.094;27.994;2022-07-23T19:46:05;25;25;
74089;PMS5003;62448;-26.094;27.994;2022-07-23T19:48:30;30;30;
74089;PMS5003;62448;-26.094;27.994;2022-07-23T19:50:56;29;27;
74089;PMS5003;62448;-26.094;27.994;2022-07-23T19:53:21;29;28;
74089;PMS5003;62448;-26.094;27.994;2022-07-23T19:55:47;28;27;
74089;PMS5003;62448;-26.094;27.994;2022-07-23T19:58:12;27;26;
74089;PMS5003;62448;-26.094;27.994;2022-07-23T20:00:37;34;31;
74089;PMS5003;62448;-26.094;27.994;2022-07-23T20:03:03;30;30;
74089;PMS5003;62448;-26.094;27.994;2022-07-23T20:05:28;36;35;
74089;PMS5003;62448;-26.094;27.994;2022-07-23T20:07:54;32;30;
74089;PMS5003;62448;-26.094;27.994;2022-07-23T20:10:19;30;28;
74089;PMS5003;62448;-26.094;27.994;2022-07-23T20:12:44;29;28;
74089;PMS5003;62448;-26.094;27.994;2022-07-23T20:15:12;34;33;
74089;PMS5003;62448;-26.094;27.994;2022-07-23T20:17:36;33;33;
74089;PMS5003;62448;-26.094;27.994;2022-07-23T20:20:00;35;31;
74089;PMS5003;62448;-26.094;27.994;2022-07-23T20:22:26;38;36;
74089;PMS5003;62448;-26.094;27.994;2022-07-23T20:24:51;31;30;
74089;PMS5003;62448;-26.094;27.994;2022-07-23T20:27:17;40;38;
74089;PMS5003;62448;-26.094;27.994;2022-07-23T20:29:42;37;34;
74089;PMS5003;62448;-26.094;27.994;2022-07-23T20:32:07;38;35;
74089;PMS5003;62448;-26.094;27.994;2022-07-23T20:34:33;36;33;
74089;PMS5003;62448;-26.094;27.994;2022-07-23T20:36:58;37;35;
74089;PMS5003;62448;-26.094;27.994;2022-07-23T20:39:24;40;38;
74089;PMS5003;62448;-26.094;27.994;2022-07-23T20:41:50;44;38;
74089;PMS5003;62448;-26.094;27.994;2022-07-23T20:44:15;37;37;
74089;PMS5003;62448;-26.094;27.994;2022-07-23T20:46:41;39;37;
74089;PMS5003;62448;-26.094;27.994;2022-07-23T20:49:07;41;37;
74089;PMS5003;62448;-26.094;27.994;2022-07-23T20:51:32;46;42;
74089;PMS5003;62448;-26.094;27.994;2022-07-23T20:53:58;42;38;
74089;PMS5003;62448;-26.094;27.994;2022-07-23T20:56:23;55;48;
74089;PMS5003;62448;-26.094;27.994;2022-07-23T20:58:48;44;42;
74089;PMS5003;62448;-26.094;27.994;2022-07-23T21:01:13;42;40;
74089;PMS5003;62448;-26.094;27.994;2022-07-23T21:03:39;50;44;
74089;PMS5003;62448;-26.094;27.994;2022-07-23T21:06:04;47;42;
74089;PMS5003;62448;-26.094;27.994;2022-07-23T21:08:29;56;51;
74089;PMS5003;62448;-26.094;27.994;2022-07-23T21:10:55;51;50;
74089;PMS5003;62448;-26.094;27.994;2022-07-23T21:13:21;55;50;
74089;PMS5003;62448;-26.094;27.994;2022-07-23T21:15:46;59;55;
74089;PMS5003;62448;-26.094;27.994;2022-07-23T21:18:12;56;54;
74089;PMS5003;62448;-26.094;27.994;2022-07-23T21:20:38;58;54;
74089;PMS5003;62448;-26.094;27.994;2022-07-23T21:23:03;56;52;
74089;PMS5003;62448;-26.094;27.994;2022-07-23T21:25:29;63;57;
74089;PMS5003;62448;-26.094;27.994;2022-07-23T21:27:54;61;57;
74089;PMS5003;62448;-26.094;27.994;2022-07-23T21:30:20;56;52;
74089;PMS5003;62448;-26.094;27.994;2022-07-23T21:32:46;57;56;
74089;PMS5003;62448;-26.094;27.994;2022-07-23T21:35:10;57;56;
74089;PMS5003;62448;-26.094;27.994;2022-07-23T21:37:36;56;54;
74089;PMS5003;62448;-26.094;27.994;2022-07-23T21:40:02;59;56;
74089;PMS5003;62448;-26.094;27.994;2022-07-23T21:42:27;67;64;
74089;PMS5003;62448;-26.094;27.994;2022-07-23T21:44:52;67;59;
74089;PMS5003;62448;-26.094;27.994;2022-07-23T21:47:18;73;68;
74089;PMS5003;62448;-26.094;27.994;2022-07-23T21:49:44;72;67;
74089;PMS5003;62448;-26.094;27.994;2022-07-23T21:52:09;71;64;
74089;PMS5003;62448;-26.094;27.994;2022-07-23T21:54:34;77;70;
74089;PMS5003;62448;-26.094;27.994;2022-07-23T21:57:00;71;64;
74089;PMS5003;62448;-26.094;27.994;2022-07-23T21:59:26;79;75;
74089;PMS5003;62448;-26.094;27.994;2022-07-23T22:01:51;68;65;
74089;PMS5003;62448;-26.094;27.994;2022-07-23T22:04:17;74;70;
74089;PMS5003;62448;-26.094;27.994;2022-07-23T22:06:42;80;70;
74089;PMS5003;62448;-26.094;27.994;2022-07-23T22:09:08;75;69;
74089;PMS5003;62448;-26.094;27.994;2022-07-23T22:11:33;78;70;
74089;PMS5003;62448;-26.094;27.994;2022-07-23T22:14:14;73;70;
74089;PMS5003;62448;-26.094;27.994;2022-07-23T22:16:39;77;72;
74089;PMS5003;62448;-26.094;27.994;2022-07-23T22:19:04;81;77;
74089;PMS5003;62448;-26.094;27.994;2022-07-23T22:21:29;81;75;
74089;PMS5003;62448;-26.094;27.994;2022-07-23T22:23:55;79;75;
74089;PMS5003;62448;-26.094;27.994;2022-07-23T22:26:21;85;75;
74089;PMS5003;62448;-26.094;27.994;2022-07-23T22:28:46;85;78;
74089;PMS5003;62448;-26.094;27.994;2022-07-23T22:31:11;83;79;
74089;PMS5003;62448;-26.094;27.994;2022-07-23T22:33:37;97;85;
74089;PMS5003;62448;-26.094;27.994;2022-07-23T22:36:03;87;82;
74089;PMS5003;62448;-26.094;27.994;2022-07-23T22:38:28;77;75;
74089;PMS5003;62448;-26.094;27.994;2022-07-23T22:40:53;79;72;
74089;PMS5003;62448;-26.094;27.994;2022-07-23T22:43:19;95;85;
74089;PMS5003;62448;-26.094;27.994;2022-07-23T22:45:45;96;87;
74089;PMS5003;62448;-26.094;27.994;2022-07-23T22:48:10;95;84;
74089;PMS5003;62448;-26.094;27.994;2022-07-23T22:50:35;93;84;
74089;PMS5003;62448;-26.094;27.994;2022-07-23T22:53:00;97;88;
74089;PMS5003;62448;-26.094;27.994;2022-07-23T22:55:25;99;89;
74089;PMS5003;62448;-26.094;27.994;2022-07-23T22:57:51;101;88;
74089;PMS5003;62448;-26.094;27.994;2022-07-23T23:00:16;94;87;
74089;PMS5003;62448;-26.094;27.994;2022-07-23T23:02:42;95;84;
74089;PMS5003;62448;-26.094;27.994;2022-07-23T23:05:08;90;85;
74089;PMS5003;62448;-26.094;27.994;2022-07-23T23:07:33;109;95;
74089;PMS5003;62448;-26.094;27.994;2022-07-23T23:09:59;88;85;
74089;PMS5003;62448;-26.094;27.994;2022-07-23T23:12:24;106;93;
74089;PMS5003;62448;-26.094;27.994;2022-07-23T23:14:49;90;89;
74089;PMS5003;62448;-26.094;27.994;2022-07-23T23:17:15;100;95;
74089;PMS5003;62448;-26.094;27.994;2022-07-23T23:19:40;102;98;
74089;PMS5003;62448;-26.094;27.994;2022-07-23T23:22:05;101;93;
74089;PMS5003;62448;-26.094;27.994;2022-07-23T23:24:31;105;101;
74089;PMS5003;62448;-26.094;27.994;2022-07-23T23:26:57;99;92;
74089;PMS5003;62448;-26.094;27.994;2022-07-23T23:29:22;101;93;
74089;PMS5003;62448;-26.094;27.994;2022-07-23T23:31:47;114;103;
74089;PMS5003;62448;-26.094;27.994;2022-07-23T23:34:13;101;96;
74089;PMS5003;62448;-26.094;27.994;2022-07-23T23:36:38;108;102;
74089;PMS5003;62448;-26.094;27.994;2022-07-23T23:39:04;113;104;
74089;PMS5003;62448;-26.094;27.994;2022-07-23T23:41:29;109;100;
74089;PMS5003;62448;-26.094;27.994;2022-07-23T23:43:55;101;95;
74089;PMS5003;62448;-26.094;27.994;2022-07-23T23:46:20;107;97;
74089;PMS5003;62448;-26.094;27.994;2022-07-23T23:48:45;107;100;
74089;PMS5003;62448;-26.094;27.994;2022-07-23T23:51:11;120;115;
74089;PMS5003;62448;-26.094;27.994;2022-07-23T23:53:37;107;100;
74089;PMS5003;62448;-26.094;27.994;2022-07-23T23:56:02;113;104;
74089;PMS5003;62448;-26.094;27.994;2022-07-23T23:58:28;107;103;
